Leighton, Iowa
Current Conditions -  °F | °C
As of 6:35 PM on Sunday 21 Dec 2014 (Local Time) from KPEA Reporting Station
Overcast Overcast  
Wind Chill: 35°   Ceiling: 3600
Heat Index: 42°   Visibility: 10mi
Dew Point: 38°   Wind: 10mph
Humidity: 88%   Direction: 160°SSE
Pressure: 29.85"   Gusts: NA
Location:  41.34°N, 92.79°W
Report Text: KPEA 220035Z AUTO 16009KT 10SM SCT014 BKN036 OVC045 05/04 A2985 RMK AO2 T00530035
Loading
Personal Weather Stations






























Interactive Weather Map New forecast layout! Learn more

10-Day Weather Forecast

Advertisements
Track Severe Weather on mobile